createdAt,value
2017-10-28T00:01:41.148Z,61.60
2017-10-28T00:04:08.644Z,61.80
2017-10-28T00:06:36.149Z,62.10
2017-10-28T00:09:03.685Z,62.30
2017-10-28T00:11:31.953Z,62.10
2017-10-28T00:13:59.467Z,62.00
2017-10-28T00:16:26.959Z,62.10
2017-10-28T00:18:54.472Z,62.30
2017-10-28T00:21:22.737Z,61.90
2017-10-28T00:23:50.229Z,61.90
2017-10-28T00:26:17.744Z,61.80
2017-10-28T00:28:45.245Z,61.90
2017-10-28T00:34:18.365Z,61.40
2017-10-28T00:36:45.877Z,60.90
2017-10-28T00:39:13.384Z,60.50
2017-10-28T00:41:41.012Z,60.40
2017-10-28T00:44:08.516Z,60.10
2017-10-28T00:46:36.796Z,60.10
2017-10-28T00:49:05.078Z,60.00
2017-10-28T00:51:32.575Z,60.00
2017-10-28T00:54:00.116Z,59.80
2017-10-28T00:56:27.621Z,59.90
2017-10-28T00:58:55.120Z,59.70
2017-10-28T01:01:22.629Z,59.70
2017-10-28T01:03:50.125Z,59.70
2017-10-28T01:06:17.636Z,59.80
2017-10-28T01:08:45.122Z,59.80
2017-10-28T01:11:13.400Z,59.50
2017-10-28T01:13:40.899Z,59.50
2017-10-28T01:16:08.414Z,59.50
2017-10-28T01:18:36.693Z,59.00
2017-10-28T01:21:04.970Z,59.00
2017-10-28T01:23:33.245Z,58.70
2017-10-28T01:26:01.629Z,58.60
2017-10-28T01:28:29.130Z,58.70
2017-10-28T01:30:56.620Z,58.60
2017-10-28T01:33:24.124Z,58.60
2017-10-28T01:35:51.622Z,58.60
2017-10-28T01:38:20.825Z,58.40
2017-10-28T01:40:48.317Z,58.40
2017-10-28T01:43:15.835Z,58.40
2017-10-28T01:45:43.332Z,58.60
2017-10-28T01:48:10.834Z,58.80
2017-10-28T01:50:38.353Z,58.70
2017-10-28T01:53:05.852Z,58.80
2017-10-28T01:55:33.366Z,58.80
2017-10-28T01:58:00.868Z,58.90
2017-10-28T02:00:28.386Z,58.70
2017-10-28T02:02:55.884Z,58.80
2017-10-28T02:05:23.384Z,58.80
2017-10-28T02:07:50.896Z,58.90
2017-10-28T02:10:18.389Z,58.90
2017-10-28T02:12:45.902Z,58.90
2017-10-28T02:15:13.395Z,58.90
2017-10-28T02:17:41.667Z,59.20
2017-10-28T02:20:09.924Z,59.40
2017-10-28T02:22:37.444Z,59.40
2017-10-28T02:25:04.954Z,59.20
2017-10-28T02:27:33.226Z,58.80
2017-10-28T02:30:01.501Z,58.30
2017-10-28T02:32:29.018Z,58.30
2017-10-28T02:34:56.539Z,58.70
2017-10-28T02:37:24.034Z,58.10
2017-10-28T02:39:51.545Z,58.30
2017-10-28T02:42:19.047Z,58.00
2017-10-28T02:44:46.581Z,57.90
2017-10-28T02:47:14.095Z,58.00
2017-10-28T02:49:41.601Z,57.90
2017-10-28T02:52:09.107Z,57.90
2017-10-28T02:54:37.377Z,58.50
2017-10-28T02:57:04.889Z,57.90
2017-10-28T02:59:32.395Z,58.10
2017-10-28T03:02:00.678Z,58.30
2017-10-28T03:04:28.960Z,58.30
2017-10-28T03:06:57.228Z,58.30
2017-10-28T03:09:25.496Z,58.30
2017-10-28T03:11:53.768Z,58.20
2017-10-28T03:14:21.284Z,58.20
2017-10-28T03:16:48.787Z,57.70
2017-10-28T03:19:17.080Z,57.20
2017-10-28T03:21:45.346Z,57.30
2017-10-28T03:24:13.618Z,57.40
2017-10-28T03:26:41.900Z,57.80
2017-10-28T03:29:10.169Z,58.50
2017-10-28T03:31:38.462Z,59.00
2017-10-28T03:34:05.964Z,59.00
2017-10-28T03:36:33.455Z,59.60
2017-10-28T03:39:01.741Z,59.50
2017-10-28T03:41:30.007Z,59.60
2017-10-28T03:43:58.296Z,60.00
2017-10-28T03:46:25.796Z,60.10
2017-10-28T03:48:53.322Z,59.60
2017-10-28T03:51:20.831Z,60.20
2017-10-28T03:53:48.335Z,61.20
2017-10-28T03:56:15.877Z,60.60
2017-10-28T03:58:44.152Z,61.70
2017-10-28T04:01:11.650Z,62.30
2017-10-28T04:03:39.179Z,61.00
2017-10-28T04:06:06.685Z,61.30
2017-10-28T04:08:34.191Z,61.10
2017-10-28T04:11:01.721Z,60.30
2017-10-28T04:13:30.029Z,60.10
2017-10-28T04:15:57.541Z,60.10
2017-10-28T04:18:25.065Z,59.70
2017-10-28T04:20:52.593Z,59.80
2017-10-28T04:23:20.098Z,59.80
2017-10-28T04:25:47.616Z,59.50
2017-10-28T04:28:15.123Z,59.30
2017-10-28T04:30:42.624Z,59.20
2017-10-28T04:33:10.156Z,58.90
2017-10-28T04:35:38.453Z,59.30
2017-10-28T04:38:06.008Z,59.30
2017-10-28T04:40:33.542Z,59.80
2017-10-28T04:43:01.826Z,59.90
2017-10-28T04:45:29.379Z,59.90
2017-10-28T04:47:57.663Z,59.90
2017-10-28T04:50:25.967Z,59.70
2017-10-28T04:52:53.472Z,59.70
2017-10-28T04:55:21.781Z,59.70
2017-10-28T04:57:49.287Z,59.70
2017-10-28T05:00:16.791Z,59.90
2017-10-28T05:02:44.330Z,59.80
2017-10-28T05:05:11.866Z,59.60
2017-10-28T05:07:39.360Z,59.20
2017-10-28T05:10:06.893Z,59.30
2017-10-28T05:12:35.178Z,59.10
2017-10-28T05:15:02.684Z,59.10
2017-10-28T05:17:30.229Z,59.10
2017-10-28T05:19:58.150Z,59.10
2017-10-28T05:22:25.649Z,59.30
2017-10-28T05:24:53.397Z,59.20
2017-10-28T05:27:20.907Z,58.80
2017-10-28T05:29:49.209Z,58.80
2017-10-28T05:32:16.705Z,58.80
2017-10-28T05:34:44.237Z,58.70
2017-10-28T05:37:12.557Z,59.40
2017-10-28T05:39:40.829Z,59.30
2017-10-28T05:42:08.338Z,59.30
2017-10-28T05:44:36.641Z,59.70
2017-10-28T05:47:04.149Z,59.70
2017-10-28T05:49:31.695Z,59.60
2017-10-28T05:51:59.193Z,59.80
2017-10-28T05:54:26.688Z,60.00
2017-10-28T05:56:54.981Z,59.70
2017-10-28T05:59:22.514Z,59.70
2017-10-28T06:01:50.789Z,60.30
2017-10-28T06:04:18.329Z,60.30
2017-10-28T06:06:46.614Z,61.20
2017-10-28T06:09:14.936Z,61.00
2017-10-28T06:11:42.441Z,61.00
2017-10-28T06:14:09.952Z,61.20
2017-10-28T06:16:37.487Z,61.60
2017-10-28T06:19:04.993Z,61.30
2017-10-28T06:21:32.521Z,61.20
2017-10-28T06:24:00.021Z,61.20
2017-10-28T06:26:27.554Z,61.90
2017-10-28T06:28:55.045Z,61.20
2017-10-28T06:31:23.353Z,61.20
2017-10-28T06:33:50.848Z,61.10
2017-10-28T06:36:18.342Z,61.50
2017-10-28T06:38:46.641Z,61.40
2017-10-28T06:41:14.144Z,61.40
2017-10-28T06:43:41.675Z,61.60
2017-10-28T06:46:09.221Z,61.80
2017-10-28T06:48:37.523Z,62.40
2017-10-28T06:51:05.021Z,61.70
2017-10-28T06:53:32.520Z,61.80
2017-10-28T06:56:00.060Z,61.80
2017-10-28T06:58:28.330Z,62.00
2017-10-28T07:00:56.600Z,61.80
2017-10-28T07:03:24.129Z,61.80
2017-10-28T07:05:51.667Z,61.80
2017-10-28T07:08:19.166Z,61.90
2017-10-28T07:10:46.686Z,62.20
2017-10-28T07:13:14.224Z,62.60
2017-10-28T07:15:41.733Z,62.50
2017-10-28T07:18:09.230Z,62.60
2017-10-28T07:20:36.769Z,62.80
2017-10-28T07:23:04.262Z,63.00
2017-10-28T07:25:31.794Z,63.20
2017-10-28T07:28:00.062Z,63.70
2017-10-28T07:30:28.382Z,63.80
2017-10-28T07:32:55.903Z,63.80
2017-10-28T07:35:24.190Z,63.80
2017-10-28T07:37:51.737Z,63.90
2017-10-28T07:40:19.242Z,63.90
2017-10-28T07:42:46.780Z,64.00
2017-10-28T07:45:14.280Z,64.10
2017-10-28T07:47:41.829Z,64.00
2017-10-28T07:50:09.334Z,63.90
2017-10-28T07:52:36.835Z,64.20
2017-10-28T07:55:04.362Z,64.30
2017-10-28T07:57:31.899Z,64.20
2017-10-28T08:00:00.190Z,64.20
2017-10-28T08:02:27.688Z,64.20
2017-10-28T08:04:55.223Z,63.80
2017-10-28T08:07:23.735Z,64.30
2017-10-28T08:09:51.242Z,62.80
2017-10-28T08:12:18.767Z,62.80
2017-10-28T08:14:47.449Z,65.10
2017-10-28T08:17:15.734Z,65.50
2017-10-28T08:19:43.249Z,65.50
2017-10-28T08:22:10.796Z,65.70
2017-10-28T08:24:38.296Z,66.80
2017-10-28T08:27:06.564Z,67.20
2017-10-28T08:29:34.112Z,67.20
2017-10-28T08:32:02.387Z,67.10
2017-10-28T08:34:29.940Z,67.10
2017-10-28T08:36:58.227Z,67.20
2017-10-28T08:39:26.074Z,67.20
2017-10-28T08:41:54.385Z,66.80
2017-10-28T08:44:21.890Z,66.80
2017-10-28T08:46:49.412Z,66.90
2017-10-28T08:49:16.947Z,67.40
2017-10-28T08:51:44.458Z,66.80
2017-10-28T08:54:12.007Z,66.00
2017-10-28T08:56:39.521Z,66.40
2017-10-28T08:59:07.031Z,65.10
2017-10-28T09:01:34.569Z,65.80
2017-10-28T09:04:02.089Z,64.60
2017-10-28T09:06:29.592Z,65.10
2017-10-28T09:08:57.122Z,65.10
2017-10-28T09:11:24.617Z,64.10
2017-10-28T09:13:52.166Z,65.40
2017-10-28T09:16:19.674Z,63.80
2017-10-28T09:18:47.210Z,64.50
2017-10-28T09:21:15.516Z,63.20
2017-10-28T09:23:43.023Z,63.40
2017-10-28T09:26:10.565Z,64.80
2017-10-28T09:28:38.069Z,65.40
2017-10-28T09:31:05.617Z,65.70
2017-10-28T09:33:33.124Z,64.70
2017-10-28T09:36:00.662Z,65.30
2017-10-28T09:38:28.186Z,63.60
2017-10-28T09:40:56.460Z,65.30
2017-10-28T09:43:24.752Z,66.10
2017-10-28T09:45:52.306Z,66.10
2017-10-28T09:48:19.881Z,64.90
2017-10-28T09:50:47.419Z,64.90
2017-10-28T09:53:14.930Z,65.20
2017-10-28T09:55:43.248Z,65.60
2017-10-28T09:58:10.745Z,65.60
2017-10-28T10:00:38.249Z,64.20
2017-10-28T10:03:05.785Z,65.40
2017-10-28T10:05:34.061Z,64.60
2017-10-28T10:08:02.371Z,66.10
2017-10-28T10:10:30.638Z,66.00
2017-10-28T10:12:58.184Z,66.00
2017-10-28T10:15:25.698Z,64.10
2017-10-28T10:17:53.215Z,65.30
2017-10-28T10:20:21.519Z,64.20
2017-10-28T10:22:49.058Z,64.20
2017-10-28T10:25:16.593Z,64.20
2017-10-28T10:27:44.103Z,65.00
2017-10-28T10:30:11.695Z,64.90
2017-10-28T10:32:39.253Z,63.40
2017-10-28T10:35:11.372Z,63.00
2017-10-28T10:37:40.323Z,63.00
2017-10-28T10:40:08.639Z,61.80
2017-10-28T10:42:36.147Z,61.70
2017-10-28T10:45:03.685Z,62.90
2017-10-28T10:47:31.208Z,62.80
2017-10-28T10:49:58.736Z,62.00
2017-10-28T10:52:26.254Z,62.20
2017-10-28T10:54:53.767Z,62.90
2017-10-28T10:57:21.301Z,63.20
2017-10-28T10:59:49.588Z,62.90
2017-10-28T11:02:17.146Z,62.80
2017-10-28T11:04:44.675Z,62.30
2017-10-28T11:07:12.237Z,63.00
2017-10-28T11:09:39.732Z,62.70
2017-10-28T11:12:07.260Z,61.20
2017-10-28T11:14:35.542Z,59.70
2017-10-28T11:17:03.850Z,59.90
2017-10-28T11:19:31.354Z,59.90
2017-10-28T11:21:58.859Z,59.00
2017-10-28T11:24:26.398Z,59.90
2017-10-28T11:26:53.918Z,60.90
2017-10-28T11:29:21.454Z,59.10
2017-10-28T11:31:49.010Z,58.80
2017-10-28T11:34:16.545Z,59.70
2017-10-28T11:36:44.054Z,59.30
2017-10-28T11:39:11.569Z,58.40
2017-10-28T11:41:40.070Z,57.60
2017-10-28T11:44:07.607Z,57.60
2017-10-28T11:46:35.133Z,57.80
2017-10-28T11:49:02.668Z,57.20
2017-10-28T11:51:30.179Z,57.50
2017-10-28T11:53:57.717Z,57.60
2017-10-28T11:56:25.226Z,57.70
2017-10-28T11:58:52.761Z,58.50
2017-10-28T12:01:20.275Z,59.20
2017-10-28T12:03:47.809Z,59.20
2017-10-28T12:06:15.326Z,57.70
2017-10-28T12:08:42.851Z,58.90
2017-10-28T12:11:10.373Z,59.20
2017-10-28T12:13:37.902Z,59.70
2017-10-28T12:16:05.409Z,60.30
2017-10-28T12:18:32.969Z,60.10
2017-10-28T12:21:00.488Z,59.50
2017-10-28T12:23:28.021Z,58.80
2017-10-28T12:25:55.552Z,58.10
2017-10-28T12:28:23.073Z,56.80
2017-10-28T12:33:44.878Z,58.20
2017-10-28T12:36:14.089Z,58.10
2017-10-28T12:38:42.806Z,58.60
2017-10-28T12:41:12.050Z,58.80
2017-10-28T12:43:39.683Z,58.80
2017-10-28T12:46:07.486Z,57.50
2017-10-28T12:48:35.968Z,57.20
2017-10-28T12:51:04.327Z,56.90
2017-10-28T12:53:31.852Z,56.80
2017-10-28T12:56:09.541Z,56.70
2017-10-28T12:58:46.104Z,56.60
2017-10-28T13:01:13.730Z,56.60
2017-10-28T13:03:41.234Z,55.70
2017-10-28T13:06:09.540Z,56.90
2017-10-28T13:08:37.053Z,57.00
2017-10-28T13:11:05.353Z,57.40
2017-10-28T13:13:32.862Z,57.40
2017-10-28T13:16:00.393Z,58.20
2017-10-28T13:18:27.904Z,58.20
2017-10-28T13:20:56.202Z,57.60
2017-10-28T13:23:23.726Z,57.60
2017-10-28T13:25:51.249Z,56.80
2017-10-28T13:28:18.770Z,56.60
2017-10-28T13:30:46.395Z,56.50
2017-10-28T13:33:13.907Z,56.70
2017-10-28T13:35:41.433Z,57.10
2017-10-28T13:38:09.704Z,57.00
2017-10-28T13:40:38.235Z,57.40
2017-10-28T13:43:05.771Z,57.40
2017-10-28T13:45:33.282Z,58.10
2017-10-28T13:48:00.786Z,57.80
2017-10-28T13:50:28.475Z,58.20
2017-10-28T13:52:56.233Z,56.90
2017-10-28T13:55:23.984Z,57.20
2017-10-28T13:57:51.695Z,57.90
2017-10-28T14:00:19.460Z,57.20
2017-10-28T14:02:47.170Z,56.80
2017-10-28T14:05:14.887Z,57.60
2017-10-28T14:07:42.624Z,57.80
2017-10-28T14:10:10.315Z,58.30
2017-10-28T14:12:37.849Z,57.60
2017-10-28T14:15:05.349Z,57.00
2017-10-28T14:17:32.870Z,57.30
2017-10-28T14:20:00.378Z,56.80
2017-10-28T14:22:27.914Z,58.60
2017-10-28T14:24:55.428Z,56.70
2017-10-28T14:27:22.975Z,58.10
2017-10-28T14:29:50.482Z,57.90
2017-10-28T14:32:18.750Z,57.90
2017-10-28T14:34:47.068Z,57.40
2017-10-28T14:37:14.573Z,57.40
2017-10-28T14:39:53.853Z,58.90
2017-10-28T14:42:21.353Z,58.50
2017-10-28T14:44:48.945Z,58.40
2017-10-28T14:47:16.832Z,58.60
2017-10-28T14:49:44.330Z,58.20
2017-10-28T14:52:11.854Z,57.50
2017-10-28T14:54:39.375Z,57.90
2017-10-28T14:57:07.686Z,57.80
2017-10-28T14:59:35.213Z,57.80
2017-10-28T15:02:03.480Z,57.40
2017-10-28T15:04:31.777Z,57.60
2017-10-28T15:06:59.310Z,58.10
2017-10-28T15:09:27.591Z,58.50
2017-10-28T15:11:55.896Z,58.40
2017-10-28T15:14:23.514Z,58.40
2017-10-28T15:16:51.016Z,58.50
2017-10-28T15:19:18.576Z,58.40
2017-10-28T15:21:46.077Z,58.80
2017-10-28T15:24:13.616Z,58.90
2017-10-28T15:26:41.184Z,58.70
2017-10-28T15:29:08.692Z,58.40
2017-10-28T15:31:36.222Z,59.00
2017-10-28T15:34:04.518Z,58.50
2017-10-28T15:36:32.066Z,58.50
2017-10-28T15:38:59.578Z,59.80
2017-10-28T15:41:27.219Z,59.80
2017-10-28T15:44:09.304Z,59.90
2017-10-28T15:46:36.820Z,60.10
2017-10-28T15:49:04.359Z,58.90
2017-10-28T15:51:31.853Z,59.00
2017-10-28T15:53:59.385Z,60.40
2017-10-28T15:56:26.899Z,59.80
2017-10-28T15:58:54.433Z,59.50
2017-10-28T16:01:21.935Z,59.40
2017-10-28T16:03:49.474Z,60.00
2017-10-28T16:06:16.969Z,60.10
2017-10-28T16:08:44.474Z,60.10
2017-10-28T16:11:12.017Z,59.40
2017-10-28T16:13:39.555Z,59.40
2017-10-28T16:16:07.817Z,60.70
2017-10-28T16:18:35.345Z,60.70
2017-10-28T16:21:02.848Z,60.80
2017-10-28T16:23:31.157Z,61.30
2017-10-28T16:25:58.652Z,61.30
2017-10-28T16:28:26.193Z,61.00
2017-10-28T16:30:53.734Z,61.30
2017-10-28T16:33:21.241Z,61.00
2017-10-28T16:35:49.539Z,61.30
2017-10-28T16:38:17.106Z,61.20
2017-10-28T16:40:44.718Z,61.30
2017-10-28T16:43:12.285Z,62.10
2017-10-28T16:45:39.793Z,61.10
2017-10-28T16:48:07.316Z,61.90
2017-10-28T16:50:35.613Z,61.10
2017-10-28T16:53:03.125Z,61.10
2017-10-28T16:55:30.650Z,61.90
2017-10-28T16:57:58.191Z,61.90
2017-10-28T17:00:25.694Z,62.20
2017-10-28T17:02:53.205Z,62.30
2017-10-28T17:05:20.760Z,62.80
2017-10-28T17:07:48.264Z,62.30
2017-10-28T17:10:15.783Z,62.30
2017-10-28T17:12:43.335Z,62.20
2017-10-28T17:15:10.869Z,62.30
2017-10-28T17:17:39.172Z,61.20
2017-10-28T17:20:06.702Z,61.20
2017-10-28T17:22:34.973Z,61.40
2017-10-28T17:25:03.282Z,62.00
2017-10-28T17:27:30.793Z,61.90
2017-10-28T17:29:58.296Z,60.40
2017-10-28T17:32:25.830Z,60.20
2017-10-28T17:34:53.344Z,60.50
2017-10-28T17:37:20.876Z,59.90
2017-10-28T17:39:48.406Z,60.50
2017-10-28T17:42:15.913Z,60.40
2017-10-28T17:44:43.463Z,59.90
2017-10-28T17:47:10.997Z,59.50
2017-10-28T17:49:38.513Z,58.70
2017-10-28T17:52:06.819Z,59.70
2017-10-28T17:54:34.339Z,59.70
2017-10-28T17:57:02.681Z,58.70
2017-10-28T17:59:30.247Z,59.50
2017-10-28T18:01:57.763Z,59.10
2017-10-28T18:04:25.359Z,58.40
2017-10-28T18:06:52.864Z,57.80
2017-10-28T18:09:20.375Z,57.60
2017-10-28T18:11:47.932Z,58.10
2017-10-28T18:14:15.491Z,56.50
2017-10-28T18:16:43.011Z,55.70
2017-10-28T18:19:10.559Z,56.70
2017-10-28T18:21:38.073Z,56.50
2017-10-28T18:24:05.633Z,56.60
2017-10-28T18:26:33.136Z,56.90
2017-10-28T18:29:00.645Z,56.70
2017-10-28T18:31:29.029Z,56.50
2017-10-28T18:33:57.269Z,56.40
2017-10-28T18:36:24.797Z,56.50
2017-10-28T18:38:52.306Z,55.40
2017-10-28T18:41:19.871Z,55.30
2017-10-28T18:43:47.400Z,55.20
2017-10-28T18:46:14.976Z,55.50
2017-10-28T18:48:42.599Z,55.60
2017-10-28T18:51:10.111Z,55.40
2017-10-28T18:53:38.432Z,55.50
2017-10-28T18:56:06.025Z,55.40
2017-10-28T18:58:33.543Z,55.60
2017-10-28T19:01:01.094Z,55.10
2017-10-28T19:03:28.612Z,55.60
2017-10-28T19:05:56.122Z,55.80
2017-10-28T19:08:23.670Z,54.70
2017-10-28T19:10:51.180Z,53.70
2017-10-28T19:13:18.800Z,52.50
2017-10-28T19:15:46.335Z,52.40
2017-10-28T19:21:04.514Z,51.40
2017-10-28T19:23:32.195Z,51.00
2017-10-28T19:25:59.816Z,51.40
2017-10-28T19:28:27.340Z,51.60
2017-10-28T19:30:55.614Z,51.50
2017-10-28T19:33:23.153Z,51.50
2017-10-28T19:35:50.735Z,51.50
2017-10-28T19:38:18.233Z,50.50
2017-10-28T19:40:46.497Z,50.70
2017-10-28T19:43:14.001Z,50.60
2017-10-28T19:45:41.510Z,49.90
2017-10-28T19:48:09.045Z,49.80
2017-10-28T19:50:37.326Z,50.50
2017-10-28T19:53:05.725Z,51.40
2017-10-28T19:55:33.329Z,51.40
2017-10-28T19:58:00.848Z,52.00
2017-10-28T20:00:28.356Z,50.10
2017-10-28T20:02:55.873Z,49.80
2017-10-28T20:05:23.374Z,49.80
2017-10-28T20:07:51.661Z,49.70
2017-10-28T20:10:20.052Z,49.40
2017-10-28T20:12:47.566Z,49.50
2017-10-28T20:15:15.115Z,49.20
2017-10-28T20:17:42.650Z,49.20
2017-10-28T20:20:10.161Z,49.70
2017-10-28T20:22:38.452Z,49.20
2017-10-28T20:25:06.009Z,49.20
2017-10-28T20:27:33.517Z,49.00
2017-10-28T20:30:01.031Z,49.60
2017-10-28T20:32:28.563Z,49.80
2017-10-28T20:34:56.831Z,49.00
2017-10-28T20:37:24.334Z,49.00
2017-10-28T20:39:51.872Z,49.30
2017-10-28T20:42:19.386Z,49.70
2017-10-28T20:44:46.907Z,48.80
2017-10-28T20:47:15.197Z,48.70
2017-10-28T20:49:42.709Z,48.70
2017-10-28T20:52:11.107Z,49.20
2017-10-28T20:54:38.655Z,49.20
2017-10-28T20:57:06.361Z,48.50
2017-10-28T20:59:33.867Z,49.10
2017-10-28T21:02:01.417Z,49.30
2017-10-28T21:04:29.699Z,48.80
2017-10-28T21:06:57.973Z,49.20
2017-10-28T21:09:26.253Z,49.00
2017-10-28T21:11:53.831Z,49.00
2017-10-28T21:14:25.315Z,48.70
2017-10-28T21:17:00.366Z,48.40
2017-10-28T21:19:28.644Z,48.40
2017-10-28T21:28:09.460Z,47.90
2017-10-28T21:30:37.060Z,48.60
2017-10-28T21:33:04.821Z,48.40
2017-10-28T21:35:32.338Z,48.30
2017-10-28T21:37:59.925Z,48.60
2017-10-28T21:40:29.008Z,47.70
2017-10-28T21:42:57.173Z,47.90
2017-10-28T21:45:25.561Z,48.90
2017-10-28T21:47:53.087Z,48.60
2017-10-28T21:50:20.629Z,48.60
2017-10-28T21:52:48.280Z,48.60
2017-10-28T21:55:17.865Z,49.00
2017-10-28T21:57:45.388Z,49.40
2017-10-28T22:00:16.278Z,49.50
2017-10-28T22:02:48.064Z,48.10
2017-10-28T22:05:15.654Z,48.10
2017-10-28T22:07:44.738Z,48.50
2017-10-28T22:10:12.329Z,48.40
2017-10-28T22:12:39.861Z,48.70
2017-10-28T22:17:40.547Z,49.20
2017-10-28T22:20:08.058Z,48.80
2017-10-28T22:22:35.562Z,48.50
2017-10-28T22:25:03.450Z,48.30
2017-10-28T22:27:30.961Z,47.70
2017-10-28T22:29:59.225Z,48.40
2017-10-28T22:32:28.221Z,47.80
2017-10-28T22:34:56.489Z,48.10
2017-10-28T22:37:24.766Z,48.60
2017-10-28T22:39:53.078Z,47.90
2017-10-28T22:42:20.595Z,48.00
2017-10-28T22:44:49.081Z,48.30
2017-10-28T22:47:16.613Z,48.30
2017-10-28T22:49:44.134Z,48.50
2017-10-28T22:52:11.664Z,48.50
2017-10-28T22:54:42.372Z,48.90
2017-10-28T22:57:11.393Z,49.60
2017-10-28T22:59:40.962Z,50.20
2017-10-28T23:02:09.319Z,50.50
2017-10-28T23:04:36.887Z,50.70
2017-10-28T23:07:04.526Z,50.30
2017-10-28T23:09:32.849Z,49.60
2017-10-28T23:12:00.495Z,49.40
2017-10-28T23:14:29.885Z,50.10
2017-10-28T23:16:57.417Z,50.60
2017-10-28T23:19:26.340Z,50.50
2017-10-28T23:21:56.244Z,50.70
2017-10-28T23:24:23.789Z,50.80
2017-10-28T23:26:51.325Z,50.70
2017-10-28T23:29:18.890Z,50.80
2017-10-28T23:31:48.264Z,50.80
2017-10-28T23:34:16.971Z,51.80
2017-10-28T23:36:44.653Z,51.40
2017-10-28T23:39:12.786Z,51.60
2017-10-28T23:41:41.613Z,51.10
2017-10-28T23:44:10.142Z,52.00
2017-10-28T23:46:37.723Z,51.20
2017-10-28T23:49:05.235Z,52.20
2017-10-28T23:51:33.557Z,52.60
2017-10-28T23:54:01.059Z,52.10
2017-10-28T23:56:28.579Z,52.50
2017-10-28T23:58:56.097Z,53.30
